createdAt,value
2017-09-19T00:01:59.258Z,100845.30
2017-09-19T00:04:26.642Z,100845.95
2017-09-19T00:06:54.046Z,100852.79
2017-09-19T00:09:21.501Z,100847.28
2017-09-19T00:11:48.913Z,100852.85
2017-09-19T00:14:16.304Z,100852.55
2017-09-19T00:16:43.697Z,100854.75
2017-09-19T00:19:11.095Z,100850.38
2017-09-19T00:21:38.518Z,100856.83
2017-09-19T00:24:05.911Z,100857.25
2017-09-19T00:26:33.390Z,100853.23
2017-09-19T00:29:00.854Z,100852.49
2017-09-19T00:31:28.246Z,100853.13
2017-09-19T00:33:55.764Z,100855.11
2017-09-19T00:36:23.223Z,100847.77
2017-09-19T00:38:50.713Z,100852.16
2017-09-19T00:41:18.099Z,100845.09
2017-09-19T00:43:45.709Z,100845.45
2017-09-19T00:46:13.629Z,100845.86
2017-09-19T00:48:41.049Z,100841.31
2017-09-19T00:51:08.461Z,100840.20
2017-09-19T00:53:35.851Z,100844.05
2017-09-19T00:56:03.282Z,100847.45
2017-09-19T00:58:30.876Z,100845.46
2017-09-19T01:00:58.279Z,100850.05
2017-09-19T01:03:25.780Z,100850.52
2017-09-19T01:05:53.181Z,100846.46
2017-09-19T01:08:20.574Z,100845.56
2017-09-19T01:10:48.066Z,100845.08
2017-09-19T01:13:15.459Z,100844.81
2017-09-19T01:15:42.947Z,100847.91
2017-09-19T01:18:10.343Z,100842.62
2017-09-19T01:20:37.725Z,100844.13
2017-09-19T01:23:05.127Z,100843.25
2017-09-19T01:25:32.517Z,100838.41
2017-09-19T01:27:59.970Z,100841.92
2017-09-19T01:30:27.378Z,100840.80
2017-09-19T01:32:54.779Z,100843.66
2017-09-19T01:35:22.214Z,100838.53
2017-09-19T01:37:49.599Z,100845.47
2017-09-19T01:40:17.682Z,100845.16
2017-09-19T01:42:45.086Z,100841.23
2017-09-19T01:45:12.478Z,100842.27
2017-09-19T01:47:39.869Z,100843.62
2017-09-19T01:50:07.365Z,100845.74
2017-09-19T01:52:34.746Z,100840.96
2017-09-19T01:55:02.149Z,100841.41
2017-09-19T01:57:30.499Z,100837.94
2017-09-19T01:59:57.905Z,100838.30
2017-09-19T02:02:25.316Z,100845.31
2017-09-19T02:04:52.703Z,100838.31
2017-09-19T02:07:20.082Z,100840.29
2017-09-19T02:09:47.547Z,100841.29
2017-09-19T02:12:14.910Z,100843.08
2017-09-19T02:14:42.315Z,100845.90
2017-09-19T02:17:09.722Z,100845.91
2017-09-19T02:19:37.134Z,100843.25
2017-09-19T02:22:04.530Z,100844.84
2017-09-19T02:24:31.950Z,100850.61
2017-09-19T02:26:59.349Z,100845.32
2017-09-19T02:29:26.749Z,100837.72
2017-09-19T02:31:54.143Z,100849.23
2017-09-19T02:34:21.538Z,100843.14
2017-09-19T02:36:48.959Z,100844.09
2017-09-19T02:39:16.511Z,100849.55
2017-09-19T02:41:43.907Z,100847.07
2017-09-19T02:44:11.315Z,100848.97
2017-09-19T02:46:38.747Z,100850.84
2017-09-19T02:49:06.166Z,100847.49
2017-09-19T02:51:33.582Z,100842.94
2017-09-19T02:54:00.976Z,100841.74
2017-09-19T02:56:28.384Z,100847.05
2017-09-19T02:58:55.779Z,100836.11
2017-09-19T03:01:23.277Z,100841.83
2017-09-19T03:03:50.667Z,100840.44
2017-09-19T03:06:18.067Z,100840.86
2017-09-19T03:08:45.464Z,100837.62
2017-09-19T03:11:12.863Z,100838.64
2017-09-19T03:13:40.275Z,100836.22
2017-09-19T03:16:07.670Z,100832.52
2017-09-19T03:18:35.063Z,100828.43
2017-09-19T03:21:02.478Z,100821.80
2017-09-19T03:23:29.871Z,100824.76
2017-09-19T03:25:57.339Z,100823.38
2017-09-19T03:28:24.738Z,100822.27
2017-09-19T03:30:52.267Z,100817.34
2017-09-19T03:33:19.670Z,100816.45
2017-09-19T03:35:47.072Z,100822.73
2017-09-19T03:38:14.471Z,100824.45
2017-09-19T03:40:41.858Z,100821.76
2017-09-19T03:43:09.258Z,100825.29
2017-09-19T03:45:36.857Z,100827.48
2017-09-19T03:48:04.261Z,100830.20
2017-09-19T03:50:31.661Z,100825.08
2017-09-19T03:52:59.050Z,100828.19
2017-09-19T03:55:26.453Z,100834.14
2017-09-19T03:57:53.915Z,100823.48
2017-09-19T04:00:21.311Z,100827.44
2017-09-19T04:02:48.727Z,100829.92
2017-09-19T04:05:16.122Z,100826.77
2017-09-19T04:07:43.514Z,100830.36
2017-09-19T04:10:10.914Z,100839.24
2017-09-19T04:12:38.323Z,100839.57
2017-09-19T04:15:05.719Z,100838.92
2017-09-19T04:17:33.102Z,100833.98
2017-09-19T04:20:00.504Z,100836.66
2017-09-19T04:22:27.896Z,100838.21
2017-09-19T04:27:36.567Z,100842.38
2017-09-19T04:30:04.050Z,100844.06
2017-09-19T04:32:31.427Z,100839.66
2017-09-19T04:34:58.831Z,100839.52
2017-09-19T04:37:26.243Z,100845.94
2017-09-19T04:39:53.644Z,100849.08
2017-09-19T04:42:21.035Z,100852.52
2017-09-19T04:44:48.441Z,100858.03
2017-09-19T04:47:15.834Z,100860.30
2017-09-19T04:49:43.263Z,100860.26
2017-09-19T04:52:10.658Z,100862.14
2017-09-19T04:54:38.050Z,100861.19
2017-09-19T04:57:05.455Z,100875.80
2017-09-19T04:59:32.937Z,100866.69
2017-09-19T05:02:00.326Z,100869.91
2017-09-19T05:04:27.729Z,100873.72
2017-09-19T05:06:55.197Z,100877.59
2017-09-19T05:09:22.595Z,100883.34
2017-09-19T05:11:49.998Z,100878.69
2017-09-19T05:14:17.398Z,100879.03
2017-09-19T05:16:44.914Z,100882.47
2017-09-19T05:19:12.306Z,100878.74
2017-09-19T05:21:39.711Z,100877.47
2017-09-19T05:24:07.099Z,100882.06
2017-09-19T05:26:34.503Z,100887.05
2017-09-19T05:29:01.894Z,100880.83
2017-09-19T05:31:29.303Z,100881.19
2017-09-19T05:33:56.699Z,100876.50
2017-09-19T05:36:24.110Z,100874.65
2017-09-19T05:38:51.511Z,100876.40
2017-09-19T05:41:18.983Z,100882.72
2017-09-19T05:43:46.391Z,100880.53
2017-09-19T05:46:13.846Z,100877.48
2017-09-19T05:48:41.255Z,100879.42
2017-09-19T05:51:08.647Z,100874.89
2017-09-19T05:53:36.042Z,100879.80
2017-09-19T05:56:03.435Z,100882.30
2017-09-19T05:58:30.878Z,100879.27
2017-09-19T06:00:58.274Z,100886.72
2017-09-19T06:03:25.787Z,100890.86
2017-09-19T06:05:53.182Z,100890.55
2017-09-19T06:08:20.591Z,100893.83
2017-09-19T06:10:48.019Z,100896.50
2017-09-19T06:13:15.409Z,100898.66
2017-09-19T06:15:42.830Z,100907.62
2017-09-19T06:18:10.338Z,100906.32
2017-09-19T06:20:37.735Z,100906.89
2017-09-19T06:23:05.226Z,100914.63
2017-09-19T06:25:32.632Z,100911.73
2017-09-19T06:28:00.018Z,100920.59
2017-09-19T06:30:27.423Z,100917.55
2017-09-19T06:32:54.818Z,100919.50
2017-09-19T06:35:22.223Z,100918.23
2017-09-19T06:37:49.614Z,100922.64
2017-09-19T06:40:17.123Z,100920.00
2017-09-19T06:42:44.523Z,100927.23
2017-09-19T06:45:11.923Z,100925.39
2017-09-19T06:47:39.386Z,100923.30
2017-09-19T06:50:06.794Z,100924.36
2017-09-19T06:52:34.187Z,100918.87
2017-09-19T06:55:01.594Z,100912.45
2017-09-19T06:57:28.985Z,100917.22
2017-09-19T06:59:56.383Z,100915.96
2017-09-19T07:02:23.788Z,100924.33
2017-09-19T07:04:51.179Z,100920.47
2017-09-19T07:07:18.588Z,100920.72
2017-09-19T07:09:45.975Z,100922.44
2017-09-19T07:12:13.374Z,100932.28
2017-09-19T07:14:40.767Z,100935.82
2017-09-19T07:17:08.259Z,100936.45
2017-09-19T07:19:35.650Z,100946.02
2017-09-19T07:22:03.049Z,100945.36
2017-09-19T07:24:30.447Z,100950.52
2017-09-19T07:26:57.847Z,100941.35
2017-09-19T07:29:25.246Z,100946.50
2017-09-19T07:31:52.644Z,100949.11
2017-09-19T07:34:20.047Z,100954.77
2017-09-19T07:36:47.447Z,100953.98
2017-09-19T07:39:14.848Z,100949.25
2017-09-19T07:41:42.239Z,100950.58
2017-09-19T07:44:09.647Z,100956.26
2017-09-19T07:46:37.114Z,100959.98
2017-09-19T07:49:04.515Z,100960.58
2017-09-19T07:51:31.921Z,100962.48
2017-09-19T07:53:59.329Z,100965.38
2017-09-19T07:56:26.726Z,100969.66
2017-09-19T07:58:54.131Z,100964.05
2017-09-19T08:01:21.527Z,100970.33
2017-09-19T08:03:48.930Z,100970.63
2017-09-19T08:06:16.331Z,100976.31
2017-09-19T08:08:43.727Z,100977.66
2017-09-19T08:11:11.127Z,100985.36
2017-09-19T08:13:38.527Z,100983.05
2017-09-19T08:16:05.931Z,100986.58
2017-09-19T08:18:33.332Z,100993.64
2017-09-19T08:21:00.738Z,100989.70
2017-09-19T08:23:28.135Z,100993.70
2017-09-19T08:25:55.536Z,100992.63
2017-09-19T08:28:22.972Z,100989.42
2017-09-19T08:30:50.436Z,100987.94
2017-09-19T08:33:17.840Z,100998.23
2017-09-19T08:35:45.247Z,100996.42
2017-09-19T08:38:12.644Z,100996.95
2017-09-19T08:40:40.050Z,101002.63
2017-09-19T08:43:07.443Z,101006.30
2017-09-19T08:45:34.835Z,101006.11
2017-09-19T08:48:02.243Z,101005.98
2017-09-19T08:50:29.630Z,101010.46
2017-09-19T08:52:57.123Z,101016.14
2017-09-19T08:55:24.523Z,101014.20
2017-09-19T08:57:51.929Z,101018.50
2017-09-19T09:00:19.394Z,101014.22
2017-09-19T09:02:46.798Z,101024.56
2017-09-19T09:05:14.194Z,101024.17
2017-09-19T09:07:41.607Z,101020.66
2017-09-19T09:10:09.027Z,101013.42
2017-09-19T09:12:36.482Z,101018.23
2017-09-19T09:15:03.881Z,101021.89
2017-09-19T09:17:31.295Z,101014.98
2017-09-19T09:19:58.682Z,101017.70
2017-09-19T09:22:26.107Z,101018.33
2017-09-19T09:24:53.504Z,101017.17
2017-09-19T09:27:20.894Z,101022.77
2017-09-19T09:29:48.302Z,101024.13
2017-09-19T09:32:15.703Z,101027.22
2017-09-19T09:34:43.187Z,101024.36
2017-09-19T09:37:10.654Z,101031.78
2017-09-19T09:39:38.046Z,101028.74
2017-09-19T09:42:05.448Z,101027.89
2017-09-19T09:44:32.851Z,101006.33
2017-09-19T09:47:00.263Z,101015.59
2017-09-19T09:49:27.671Z,101014.89
2017-09-19T09:51:55.072Z,101016.84
2017-09-19T09:54:22.472Z,101013.63
2017-09-19T09:56:49.859Z,101012.97
2017-09-19T09:59:17.255Z,101013.73
2017-09-19T10:01:44.646Z,101018.38
2017-09-19T10:04:12.075Z,101014.57
2017-09-19T10:06:39.471Z,101010.72
2017-09-19T10:09:06.868Z,101002.45
2017-09-19T10:11:34.266Z,101012.45
2017-09-19T10:14:01.671Z,101017.08
2017-09-19T10:16:29.082Z,101015.00
2017-09-19T10:18:56.484Z,101013.30
2017-09-19T10:21:23.889Z,101008.59
2017-09-19T10:23:51.322Z,101007.83
2017-09-19T10:26:18.727Z,101005.55
2017-09-19T10:28:46.123Z,101004.40
2017-09-19T10:31:13.535Z,101008.00
2017-09-19T10:33:40.930Z,101010.55
2017-09-19T10:36:08.342Z,101003.80
2017-09-19T10:38:35.729Z,101013.66
2017-09-19T10:41:03.130Z,101016.86
2017-09-19T10:43:30.526Z,101005.31
2017-09-19T10:45:57.931Z,101012.21
2017-09-19T10:48:25.340Z,101011.34
2017-09-19T10:50:52.727Z,101011.55
2017-09-19T10:53:20.143Z,101009.66
2017-09-19T10:55:47.537Z,101017.39
2017-09-19T10:58:14.943Z,101008.00
2017-09-19T11:00:42.341Z,101008.04
2017-09-19T11:03:09.747Z,101004.52
2017-09-19T11:05:37.139Z,101005.56
2017-09-19T11:08:04.543Z,101006.75
2017-09-19T11:10:31.943Z,101003.45
2017-09-19T11:12:59.351Z,100999.74
2017-09-19T11:15:26.751Z,101002.20
2017-09-19T11:17:54.167Z,101007.46
2017-09-19T11:20:21.563Z,100998.10
2017-09-19T11:22:48.975Z,101008.27
2017-09-19T11:25:16.378Z,101007.71
2017-09-19T11:27:43.784Z,101008.75
2017-09-19T11:30:11.182Z,101005.88
2017-09-19T11:32:38.630Z,101004.17
2017-09-19T11:35:06.122Z,101006.06
2017-09-19T11:37:33.583Z,101002.45
2017-09-19T11:40:01.039Z,100997.78
2017-09-19T11:42:28.426Z,101002.81
2017-09-19T11:44:55.839Z,100998.92
2017-09-19T11:47:23.234Z,100993.17
2017-09-19T11:49:50.643Z,100993.32
2017-09-19T11:52:18.051Z,101002.02
2017-09-19T11:54:45.666Z,100999.72
2017-09-19T11:57:13.951Z,100995.86
2017-09-19T11:59:41.363Z,101001.31
2017-09-19T12:02:08.763Z,100999.22
2017-09-19T12:04:36.188Z,101002.33
2017-09-19T12:07:03.596Z,101003.70
2017-09-19T12:09:31.044Z,101003.28
2017-09-19T12:11:58.430Z,101007.98
2017-09-19T12:14:26.476Z,101004.93
2017-09-19T12:16:53.859Z,101001.73
2017-09-19T12:19:21.274Z,100991.83
2017-09-19T12:21:48.667Z,100993.56
2017-09-19T12:24:16.063Z,100987.53
2017-09-19T12:26:43.471Z,100996.05
2017-09-19T12:29:10.872Z,101000.73
2017-09-19T12:31:38.362Z,100997.23
2017-09-19T12:34:05.759Z,100993.44
2017-09-19T12:36:33.170Z,100995.50
2017-09-19T12:39:00.571Z,101001.82
2017-09-19T12:41:27.978Z,101000.26
2017-09-19T12:43:55.414Z,101000.57
2017-09-19T12:46:22.826Z,100997.42
2017-09-19T12:48:50.223Z,101002.26
2017-09-19T12:51:17.651Z,101001.19
2017-09-19T12:53:45.047Z,100999.30
2017-09-19T12:56:12.451Z,101001.88
2017-09-19T12:58:39.843Z,101010.05
2017-09-19T13:01:07.252Z,101007.02
2017-09-19T13:03:34.647Z,101007.10
2017-09-19T13:06:02.069Z,101006.37
2017-09-19T13:08:29.563Z,101002.48
2017-09-19T13:10:56.962Z,101004.16
2017-09-19T13:13:24.375Z,101008.06
2017-09-19T13:15:51.774Z,101008.67
2017-09-19T13:18:19.187Z,101007.27
2017-09-19T13:20:46.580Z,101010.55
2017-09-19T13:23:13.983Z,101015.00
2017-09-19T13:25:41.379Z,101010.17
2017-09-19T13:28:08.783Z,101011.41
2017-09-19T13:30:36.179Z,101011.20
2017-09-19T13:33:15.528Z,101013.11
2017-09-19T13:35:42.938Z,101005.96
2017-09-19T13:38:10.343Z,101001.55
2017-09-19T13:40:37.743Z,100995.34
2017-09-19T13:43:05.233Z,101001.56
2017-09-19T13:45:32.618Z,101005.75
2017-09-19T13:48:00.024Z,101000.83
2017-09-19T13:50:27.437Z,101007.73
2017-09-19T13:52:54.851Z,101000.98
2017-09-19T13:55:22.251Z,101000.76
2017-09-19T13:57:49.646Z,101005.97
2017-09-19T14:00:17.050Z,100999.98
2017-09-19T14:02:44.443Z,101011.22
2017-09-19T14:05:11.852Z,101007.14
2017-09-19T14:07:39.242Z,100997.61
2017-09-19T14:10:06.657Z,101001.05
2017-09-19T14:12:34.055Z,101013.73
2017-09-19T14:15:01.454Z,101004.84
2017-09-19T14:17:28.859Z,101010.47
2017-09-19T14:19:56.258Z,101004.86
2017-09-19T14:22:23.659Z,101012.76
2017-09-19T14:24:51.103Z,101007.48
2017-09-19T14:27:18.500Z,101008.66
2017-09-19T14:29:45.899Z,101011.30
2017-09-19T14:32:13.313Z,101008.03
2017-09-19T14:34:40.712Z,101011.75
2017-09-19T14:37:08.114Z,101002.86
2017-09-19T14:39:35.515Z,101004.88
2017-09-19T14:42:02.914Z,101010.93
2017-09-19T14:44:30.311Z,101009.14
2017-09-19T14:46:57.704Z,101005.20
2017-09-19T14:49:25.108Z,101001.94
2017-09-19T14:51:52.511Z,101003.55
2017-09-19T14:54:19.913Z,100998.05
2017-09-19T14:56:47.316Z,101001.71
2017-09-19T14:59:14.766Z,101001.12
2017-09-19T15:01:42.167Z,100997.08
2017-09-19T15:04:09.554Z,100997.39
2017-09-19T15:06:36.963Z,101001.89
2017-09-19T15:09:04.357Z,100996.31
2017-09-19T15:11:31.754Z,100995.33
2017-09-19T15:13:59.151Z,100996.91
2017-09-19T15:16:26.567Z,100994.79
2017-09-19T15:18:53.967Z,100997.96
2017-09-19T15:21:21.354Z,100998.63
2017-09-19T15:23:48.758Z,101004.25
2017-09-19T15:26:16.154Z,101004.19
2017-09-19T15:28:43.554Z,101008.53
2017-09-19T15:31:10.966Z,101002.55
2017-09-19T15:33:38.455Z,101009.51
2017-09-19T15:36:05.852Z,101009.97
2017-09-19T15:38:33.255Z,101006.02
2017-09-19T15:41:00.646Z,101009.20
2017-09-19T15:43:28.058Z,101012.23
2017-09-19T15:45:55.695Z,101015.76
2017-09-19T15:48:23.164Z,101018.25
2017-09-19T15:50:50.564Z,101028.91
2017-09-19T15:53:17.970Z,101024.34
2017-09-19T15:55:45.484Z,101025.52
2017-09-19T15:58:12.921Z,101035.05
2017-09-19T16:00:40.546Z,101035.75
2017-09-19T16:03:08.043Z,101031.77
2017-09-19T16:05:35.483Z,101035.34
2017-09-19T16:08:03.103Z,101031.22
2017-09-19T16:10:30.618Z,101034.55
2017-09-19T16:12:58.014Z,101032.23
2017-09-19T16:15:25.414Z,101032.81
2017-09-19T16:17:52.823Z,101033.08
2017-09-19T16:20:20.227Z,101036.38
2017-09-19T16:22:47.626Z,101039.34
2017-09-19T16:25:15.026Z,101043.72
2017-09-19T16:27:42.429Z,101043.44
2017-09-19T16:30:09.831Z,101047.73
2017-09-19T16:32:37.230Z,101043.09
2017-09-19T16:35:04.642Z,101046.39
2017-09-19T16:37:32.034Z,101044.63
2017-09-19T16:39:59.440Z,101041.18
2017-09-19T16:42:26.850Z,101039.06
2017-09-19T16:44:54.235Z,101045.75
2017-09-19T16:47:21.630Z,101043.22
2017-09-19T16:49:49.023Z,101046.50
2017-09-19T16:52:16.428Z,101047.04
2017-09-19T16:54:43.822Z,101047.89
2017-09-19T16:57:11.234Z,101047.45
2017-09-19T16:59:38.622Z,101056.44
2017-09-19T17:02:06.027Z,101057.56
2017-09-19T17:04:33.420Z,101055.64
2017-09-19T17:07:00.823Z,101065.14
2017-09-19T17:09:28.224Z,101063.05
2017-09-19T17:11:55.650Z,101058.41
2017-09-19T17:14:23.038Z,101062.86
2017-09-19T17:16:50.445Z,101071.92
2017-09-19T17:19:17.855Z,101077.89
2017-09-19T17:21:45.251Z,101077.09
2017-09-19T17:24:12.652Z,101078.99
2017-09-19T17:26:40.053Z,101081.42
2017-09-19T17:29:07.454Z,101081.66
2017-09-19T17:31:34.855Z,101079.75
2017-09-19T17:34:02.264Z,101088.56
2017-09-19T17:36:29.692Z,101082.58
2017-09-19T17:38:57.098Z,101089.19
2017-09-19T17:41:24.508Z,101084.19
2017-09-19T17:43:51.943Z,101086.21
2017-09-19T17:46:19.394Z,101092.33
2017-09-19T17:48:46.794Z,101087.59
2017-09-19T17:51:14.186Z,101092.52
2017-09-19T17:53:41.638Z,101096.58
2017-09-19T17:56:09.029Z,101098.61
2017-09-19T17:58:36.412Z,101104.08
2017-09-19T18:01:03.810Z,101109.16
2017-09-19T18:03:31.207Z,101105.02
2017-09-19T18:05:58.606Z,101108.27
2017-09-19T18:08:25.999Z,101099.44
2017-09-19T18:10:53.406Z,101104.22
2017-09-19T18:13:20.880Z,101105.39
2017-09-19T18:18:17.835Z,101105.08
2017-09-19T18:20:45.241Z,101110.75
2017-09-19T18:23:12.630Z,101112.13
2017-09-19T18:25:40.031Z,101117.00
2017-09-19T18:28:07.436Z,101116.50
2017-09-19T18:30:34.834Z,101122.13
2017-09-19T18:33:02.227Z,101127.56
2017-09-19T18:35:29.631Z,101133.97
2017-09-19T18:37:57.028Z,101130.47
2017-09-19T18:40:24.445Z,101132.41
2017-09-19T18:42:51.931Z,101135.71
2017-09-19T18:45:19.322Z,101128.67
2017-09-19T18:47:46.727Z,101140.42
2017-09-19T18:50:14.359Z,101136.11
2017-09-19T18:52:41.759Z,101136.88
2017-09-19T18:55:09.335Z,101139.48
2017-09-19T18:57:36.758Z,101139.55
2017-09-19T19:00:04.154Z,101147.77
2017-09-19T19:02:31.556Z,101149.92
2017-09-19T19:04:58.951Z,101146.45
2017-09-19T19:07:26.395Z,101149.66
2017-09-19T19:09:53.787Z,101150.03
2017-09-19T19:12:21.234Z,101149.05
2017-09-19T19:14:48.626Z,101156.38
2017-09-19T19:17:16.133Z,101149.67
2017-09-19T19:19:43.537Z,101153.93
2017-09-19T19:22:11.031Z,101151.64
2017-09-19T19:24:38.426Z,101150.73
2017-09-19T19:27:05.822Z,101152.59
2017-09-19T19:29:33.230Z,101156.75
2017-09-19T19:32:00.650Z,101157.56
2017-09-19T19:34:28.095Z,101157.41
2017-09-19T19:36:55.571Z,101160.54
2017-09-19T19:39:22.979Z,101161.38
2017-09-19T19:41:50.371Z,101154.75
2017-09-19T19:44:17.953Z,101160.73
2017-09-19T19:46:45.357Z,101158.73
2017-09-19T19:49:12.770Z,101158.31
2017-09-19T19:51:40.163Z,101162.73
2017-09-19T19:54:07.566Z,101160.62
2017-09-19T19:56:35.021Z,101154.45
2017-09-19T19:59:02.419Z,101158.23
2017-09-19T20:01:29.820Z,101159.50
2017-09-19T20:03:57.283Z,101157.63
2017-09-19T20:06:24.683Z,101153.86
2017-09-19T20:08:52.090Z,101161.00
2017-09-19T20:11:19.495Z,101165.91
2017-09-19T20:13:46.890Z,101170.63
2017-09-19T20:16:14.307Z,101168.41
2017-09-19T20:18:41.702Z,101176.16
2017-09-19T20:21:09.102Z,101171.00
2017-09-19T20:23:36.494Z,101170.20
2017-09-19T20:26:03.897Z,101162.45
2017-09-19T20:28:31.429Z,101171.78
2017-09-19T20:30:58.834Z,101168.81
2017-09-19T20:33:26.227Z,101161.45
2017-09-19T20:35:53.626Z,101170.05
2017-09-19T20:38:21.020Z,101158.08
2017-09-19T20:40:48.419Z,101162.16
2017-09-19T20:43:15.822Z,101158.84
2017-09-19T20:45:43.229Z,101155.94
2017-09-19T20:48:10.623Z,101159.06
2017-09-19T20:50:38.019Z,101164.84
2017-09-19T20:53:05.498Z,101158.23
2017-09-19T20:55:32.887Z,101156.22
2017-09-19T20:58:00.288Z,101160.70
2017-09-19T21:00:27.690Z,101158.16
2017-09-19T21:02:54.518Z,101160.05
2017-09-19T21:05:27.562Z,101158.73
2017-09-19T21:08:00.670Z,101153.09
2017-09-19T21:10:33.621Z,101158.64
2017-09-19T21:13:06.634Z,101163.63
2017-09-19T21:15:39.586Z,101158.86
2017-09-19T21:18:12.506Z,101166.95
2017-09-19T21:20:39.904Z,101176.37
2017-09-19T21:23:07.302Z,101168.96
2017-09-19T21:25:34.694Z,101167.94
2017-09-19T21:28:02.095Z,101165.33
2017-09-19T21:30:29.482Z,101166.14
2017-09-19T21:32:56.878Z,101168.81
2017-09-19T21:35:24.271Z,101159.59
2017-09-19T21:37:51.670Z,101160.58
2017-09-19T21:40:19.055Z,101159.24
2017-09-19T21:42:46.459Z,101160.48
2017-09-19T21:45:13.847Z,101154.73
2017-09-19T21:47:41.238Z,101153.30
2017-09-19T21:50:08.871Z,101151.06
2017-09-19T21:52:36.298Z,101153.73
2017-09-19T21:55:03.698Z,101153.62
2017-09-19T21:57:31.091Z,101155.03
2017-09-19T21:59:58.483Z,101156.61
2017-09-19T22:02:25.941Z,101150.19
2017-09-19T22:04:53.315Z,101152.52
2017-09-19T22:07:20.703Z,101152.56
2017-09-19T22:09:48.104Z,101156.74
2017-09-19T22:12:15.496Z,101155.24
2017-09-19T22:14:42.911Z,101149.55
2017-09-19T22:17:10.352Z,101148.44
2017-09-19T22:19:37.740Z,101146.67
2017-09-19T22:22:05.140Z,101149.87
2017-09-19T22:24:32.523Z,101146.57
2017-09-19T22:26:59.920Z,101154.88
2017-09-19T22:29:27.306Z,101147.50
2017-09-19T22:31:54.725Z,101143.27
2017-09-19T22:34:22.110Z,101144.20
2017-09-19T22:36:49.608Z,101139.39
2017-09-19T22:39:16.992Z,101142.71
2017-09-19T22:41:44.387Z,101135.79
2017-09-19T22:44:11.861Z,101141.96
2017-09-19T22:46:39.263Z,101143.93
2017-09-19T22:49:06.647Z,101142.98
2017-09-19T22:51:34.059Z,101144.68
2017-09-19T22:54:01.434Z,101147.95
2017-09-19T22:56:28.822Z,101143.72
2017-09-19T22:58:56.226Z,101136.80
2017-09-19T23:01:23.614Z,101141.43
2017-09-19T23:03:51.026Z,101137.38
2017-09-19T23:06:18.415Z,101141.91
2017-09-19T23:08:45.863Z,101140.04
2017-09-19T23:11:13.254Z,101139.30
2017-09-19T23:13:40.653Z,101136.10
2017-09-19T23:16:08.035Z,101138.50
2017-09-19T23:18:35.427Z,101135.30
2017-09-19T23:21:02.811Z,101134.21
2017-09-19T23:23:30.198Z,101135.12
2017-09-19T23:25:57.587Z,101138.48
2017-09-19T23:28:25.072Z,101135.25
2017-09-19T23:30:52.464Z,101137.84
2017-09-19T23:33:19.876Z,101135.98
2017-09-19T23:41:29.658Z,101137.46
2017-09-19T23:43:57.046Z,101144.37
2017-09-19T23:46:24.459Z,101137.82
2017-09-19T23:48:51.843Z,101137.08
2017-09-19T23:51:19.254Z,101140.27
2017-09-19T23:53:46.730Z,101134.45
2017-09-19T23:56:14.190Z,101133.42
2017-09-19T23:58:41.578Z,101132.88
